KMEB

Laurinburg-Maxton Airport

Maxton, North Carolina, USA
METAR KMEB 210652Z AUTO 24004KT 10SM OVC008 22/21 A3012 RMK AO2 SLP197 T02220211
Observed Flight Rules
May-21 @ 06:52 UTC (29 minutes ago) Instrument Flight Rules
Wind Visibility Clouds
240° at 4 knots 10 miles
  • Overcast at 800' AGL
Temperatures Readings
Current 22°C / 72°F
Dewpoint 21°C / 70°F
Humidity 94%
Altimeter 30.12" Hg
Pressure 1019.7 hPa
Elevation 67
METAR KMEB 210652Z AUTO 24004KT 10SM OVC008 22/21 A3012 RMK AO2 SLP197 T02220211
Observed Flight Rules
May-21 @ 06:52 UTC
(29 minutes ago)
IFR
Wind Visibility
240° at 4 knots 10 miles
Clouds
  • Overcast at 800' AGL
Temperature Dewpoint
22°C / 72°F 21°C / 70°F
Humidity Altimeter Pressure
94% 30.12" Hg 1019.7 hPa